sensor_id;sensor_type;location;lat;lon;timestamp;P1;durP1;ratioP1;P2;durP2;ratioP2
75680;SDS011;64294;49.176;16.626;2023-04-29T00:02:09;15.43;;;9.35;;
75680;SDS011;64294;49.176;16.626;2023-04-29T00:04:34;16.40;;;8.60;;
75680;SDS011;64294;49.176;16.626;2023-04-29T00:07:00;15.27;;;8.40;;
75680;SDS011;64294;49.176;16.626;2023-04-29T00:09:26;15.65;;;9.10;;
75680;SDS011;64294;49.176;16.626;2023-04-29T00:11:52;16.38;;;10.30;;
75680;SDS011;64294;49.176;16.626;2023-04-29T00:14:17;13.98;;;8.52;;
75680;SDS011;64294;49.176;16.626;2023-04-29T00:16:42;18.10;;;9.43;;
75680;SDS011;64294;49.176;16.626;2023-04-29T00:19:08;14.75;;;9.07;;
75680;SDS011;64294;49.176;16.626;2023-04-29T00:21:33;15.55;;;9.18;;
75680;SDS011;64294;49.176;16.626;2023-04-29T00:23:59;14.77;;;8.93;;
75680;SDS011;64294;49.176;16.626;2023-04-29T00:26:24;15.85;;;9.18;;
75680;SDS011;64294;49.176;16.626;2023-04-29T00:28:50;15.32;;;9.65;;
75680;SDS011;64294;49.176;16.626;2023-04-29T00:31:15;14.80;;;9.60;;
75680;SDS011;64294;49.176;16.626;2023-04-29T00:33:40;14.88;;;9.30;;
75680;SDS011;64294;49.176;16.626;2023-04-29T00:36:06;16.55;;;8.98;;
75680;SDS011;64294;49.176;16.626;2023-04-29T00:38:32;13.63;;;8.88;;
75680;SDS011;64294;49.176;16.626;2023-04-29T00:40:58;18.05;;;9.45;;
75680;SDS011;64294;49.176;16.626;2023-04-29T00:43:24;15.20;;;9.50;;
75680;SDS011;64294;49.176;16.626;2023-04-29T00:45:50;16.65;;;10.00;;
75680;SDS011;64294;49.176;16.626;2023-04-29T00:48:15;15.07;;;9.77;;
75680;SDS011;64294;49.176;16.626;2023-04-29T00:50:41;13.07;;;10.07;;
75680;SDS011;64294;49.176;16.626;2023-04-29T00:53:08;19.55;;;10.82;;
75680;SDS011;64294;49.176;16.626;2023-04-29T00:55:34;16.17;;;9.43;;
75680;SDS011;64294;49.176;16.626;2023-04-29T00:57:59;14.40;;;9.45;;
75680;SDS011;64294;49.176;16.626;2023-04-29T01:00:27;15.15;;;9.70;;
75680;SDS011;64294;49.176;16.626;2023-04-29T01:02:52;21.75;;;10.85;;
75680;SDS011;64294;49.176;16.626;2023-04-29T01:05:21;14.88;;;9.77;;
75680;SDS011;64294;49.176;16.626;2023-04-29T01:10:33;14.18;;;9.57;;
75680;SDS011;64294;49.176;16.626;2023-04-29T01:13:13;15.55;;;9.82;;
75680;SDS011;64294;49.176;16.626;2023-04-29T01:15:46;14.05;;;10.02;;
75680;SDS011;64294;49.176;16.626;2023-04-29T01:18:35;17.15;;;10.32;;
75680;SDS011;64294;49.176;16.626;2023-04-29T01:21:03;14.32;;;9.38;;
75680;SDS011;64294;49.176;16.626;2023-04-29T01:23:29;16.10;;;9.38;;
75680;SDS011;64294;49.176;16.626;2023-04-29T01:25:54;13.23;;;9.48;;
75680;SDS011;64294;49.176;16.626;2023-04-29T01:36:29;16.65;;;9.20;;
75680;SDS011;64294;49.176;16.626;2023-04-29T01:44:45;16.38;;;9.65;;
75680;SDS011;64294;49.176;16.626;2023-04-29T01:47:12;14.70;;;9.65;;
75680;SDS011;64294;49.176;16.626;2023-04-29T01:49:38;17.33;;;9.85;;
75680;SDS011;64294;49.176;16.626;2023-04-29T01:52:04;15.88;;;10.38;;
75680;SDS011;64294;49.176;16.626;2023-04-29T01:54:31;17.70;;;9.68;;
75680;SDS011;64294;49.176;16.626;2023-04-29T01:56:56;13.77;;;9.18;;
75680;SDS011;64294;49.176;16.626;2023-04-29T01:59:23;15.13;;;9.80;;
75680;SDS011;64294;49.176;16.626;2023-04-29T02:01:48;15.73;;;9.57;;
75680;SDS011;64294;49.176;16.626;2023-04-29T02:04:13;16.75;;;10.45;;
75680;SDS011;64294;49.176;16.626;2023-04-29T02:06:39;16.00;;;9.65;;
75680;SDS011;64294;49.176;16.626;2023-04-29T02:09:04;17.05;;;10.32;;
75680;SDS011;64294;49.176;16.626;2023-04-29T02:11:31;16.40;;;10.10;;
75680;SDS011;64294;49.176;16.626;2023-04-29T02:13:57;16.73;;;10.40;;
75680;SDS011;64294;49.176;16.626;2023-04-29T02:16:22;16.60;;;10.60;;
75680;SDS011;64294;49.176;16.626;2023-04-29T02:18:51;14.55;;;10.50;;
75680;SDS011;64294;49.176;16.626;2023-04-29T02:21:17;15.50;;;10.70;;
75680;SDS011;64294;49.176;16.626;2023-04-29T02:23:42;16.13;;;10.45;;
75680;SDS011;64294;49.176;16.626;2023-04-29T02:26:07;16.50;;;10.57;;
75680;SDS011;64294;49.176;16.626;2023-04-29T02:28:34;16.40;;;10.07;;
75680;SDS011;64294;49.176;16.626;2023-04-29T02:31:02;17.27;;;10.85;;
75680;SDS011;64294;49.176;16.626;2023-04-29T02:33:28;16.88;;;10.07;;
75680;SDS011;64294;49.176;16.626;2023-04-29T02:35:53;15.98;;;10.27;;
75680;SDS011;64294;49.176;16.626;2023-04-29T02:38:19;16.45;;;10.43;;
75680;SDS011;64294;49.176;16.626;2023-04-29T02:40:45;14.82;;;10.45;;
75680;SDS011;64294;49.176;16.626;2023-04-29T02:43:11;18.42;;;10.93;;
75680;SDS011;64294;49.176;16.626;2023-04-29T02:45:38;18.00;;;10.55;;
75680;SDS011;64294;49.176;16.626;2023-04-29T02:48:04;18.40;;;10.43;;
75680;SDS011;64294;49.176;16.626;2023-04-29T02:50:30;14.82;;;10.57;;
75680;SDS011;64294;49.176;16.626;2023-04-29T02:52:59;17.85;;;10.70;;
75680;SDS011;64294;49.176;16.626;2023-04-29T02:55:25;16.75;;;10.50;;
75680;SDS011;64294;49.176;16.626;2023-04-29T02:57:52;15.93;;;10.18;;
75680;SDS011;64294;49.176;16.626;2023-04-29T03:00:18;14.85;;;10.05;;
75680;SDS011;64294;49.176;16.626;2023-04-29T03:02:44;18.20;;;10.35;;
75680;SDS011;64294;49.176;16.626;2023-04-29T03:05:09;17.48;;;10.77;;
75680;SDS011;64294;49.176;16.626;2023-04-29T03:07:35;17.45;;;9.95;;
75680;SDS011;64294;49.176;16.626;2023-04-29T03:10:01;16.77;;;10.48;;
75680;SDS011;64294;49.176;16.626;2023-04-29T03:12:31;15.60;;;9.93;;
75680;SDS011;64294;49.176;16.626;2023-04-29T03:14:56;15.40;;;10.65;;
75680;SDS011;64294;49.176;16.626;2023-04-29T03:17:21;20.42;;;11.23;;
75680;SDS011;64294;49.176;16.626;2023-04-29T03:19:50;18.83;;;10.60;;
75680;SDS011;64294;49.176;16.626;2023-04-29T03:22:17;16.40;;;10.65;;
75680;SDS011;64294;49.176;16.626;2023-04-29T03:24:42;15.23;;;10.90;;
75680;SDS011;64294;49.176;16.626;2023-04-29T03:27:08;18.63;;;10.48;;
75680;SDS011;64294;49.176;16.626;2023-04-29T03:29:33;17.65;;;10.70;;
75680;SDS011;64294;49.176;16.626;2023-04-29T03:31:59;16.83;;;11.20;;
75680;SDS011;64294;49.176;16.626;2023-04-29T03:34:25;18.83;;;11.20;;
75680;SDS011;64294;49.176;16.626;2023-04-29T03:36:50;16.27;;;11.63;;
75680;SDS011;64294;49.176;16.626;2023-04-29T03:39:16;19.10;;;12.25;;
75680;SDS011;64294;49.176;16.626;2023-04-29T03:41:42;16.33;;;11.13;;
75680;SDS011;64294;49.176;16.626;2023-04-29T03:44:07;18.88;;;11.95;;
75680;SDS011;64294;49.176;16.626;2023-04-29T03:46:33;19.08;;;11.32;;
75680;SDS011;64294;49.176;16.626;2023-04-29T03:48:58;16.42;;;10.98;;
75680;SDS011;64294;49.176;16.626;2023-04-29T03:51:24;18.40;;;11.23;;
75680;SDS011;64294;49.176;16.626;2023-04-29T03:53:50;18.92;;;11.70;;
75680;SDS011;64294;49.176;16.626;2023-04-29T03:56:17;16.77;;;11.23;;
75680;SDS011;64294;49.176;16.626;2023-04-29T03:58:42;20.10;;;11.52;;
75680;SDS011;64294;49.176;16.626;2023-04-29T04:01:09;17.20;;;10.98;;
75680;SDS011;64294;49.176;16.626;2023-04-29T04:03:36;16.83;;;11.35;;
75680;SDS011;64294;49.176;16.626;2023-04-29T04:06:01;18.45;;;10.93;;
75680;SDS011;64294;49.176;16.626;2023-04-29T04:08:27;20.38;;;12.18;;
75680;SDS011;64294;49.176;16.626;2023-04-29T04:10:52;20.05;;;11.23;;
75680;SDS011;64294;49.176;16.626;2023-04-29T04:13:17;18.30;;;11.40;;
75680;SDS011;64294;49.176;16.626;2023-04-29T04:15:48;21.23;;;12.07;;
75680;SDS011;64294;49.176;16.626;2023-04-29T04:18:15;21.75;;;11.57;;
75680;SDS011;64294;49.176;16.626;2023-04-29T04:20:40;19.38;;;11.68;;
75680;SDS011;64294;49.176;16.626;2023-04-29T04:23:06;20.38;;;12.15;;
75680;SDS011;64294;49.176;16.626;2023-04-29T04:25:32;18.33;;;12.40;;
75680;SDS011;64294;49.176;16.626;2023-04-29T04:27:58;19.15;;;12.32;;
75680;SDS011;64294;49.176;16.626;2023-04-29T04:30:23;19.13;;;12.45;;
75680;SDS011;64294;49.176;16.626;2023-04-29T04:32:49;19.77;;;12.18;;
75680;SDS011;64294;49.176;16.626;2023-04-29T04:35:14;20.52;;;12.77;;
75680;SDS011;64294;49.176;16.626;2023-04-29T04:37:39;18.88;;;12.10;;
75680;SDS011;64294;49.176;16.626;2023-04-29T04:40:05;18.88;;;11.95;;
75680;SDS011;64294;49.176;16.626;2023-04-29T04:42:31;19.55;;;11.57;;
75680;SDS011;64294;49.176;16.626;2023-04-29T04:44:57;20.00;;;12.07;;
75680;SDS011;64294;49.176;16.626;2023-04-29T04:47:22;20.58;;;12.45;;
75680;SDS011;64294;49.176;16.626;2023-04-29T04:49:47;19.52;;;12.73;;
75680;SDS011;64294;49.176;16.626;2023-04-29T04:52:14;20.55;;;12.23;;
75680;SDS011;64294;49.176;16.626;2023-04-29T04:54:40;15.93;;;12.27;;
75680;SDS011;64294;49.176;16.626;2023-04-29T04:57:05;19.85;;;12.80;;
75680;SDS011;64294;49.176;16.626;2023-04-29T04:59:31;20.13;;;12.82;;
75680;SDS011;64294;49.176;16.626;2023-04-29T05:01:57;21.17;;;12.68;;
75680;SDS011;64294;49.176;16.626;2023-04-29T05:04:23;18.25;;;12.35;;
75680;SDS011;64294;49.176;16.626;2023-04-29T05:06:48;19.40;;;12.95;;
75680;SDS011;64294;49.176;16.626;2023-04-29T05:09:13;23.23;;;12.43;;
75680;SDS011;64294;49.176;16.626;2023-04-29T05:11:39;17.70;;;12.18;;
75680;SDS011;64294;49.176;16.626;2023-04-29T05:14:05;19.85;;;12.60;;
75680;SDS011;64294;49.176;16.626;2023-04-29T05:16:31;19.83;;;12.73;;
75680;SDS011;64294;49.176;16.626;2023-04-29T05:18:56;18.73;;;12.73;;
75680;SDS011;64294;49.176;16.626;2023-04-29T05:21:22;20.88;;;12.20;;
75680;SDS011;64294;49.176;16.626;2023-04-29T05:23:47;18.80;;;12.13;;
75680;SDS011;64294;49.176;16.626;2023-04-29T05:26:12;20.40;;;12.77;;
75680;SDS011;64294;49.176;16.626;2023-04-29T05:28:38;20.80;;;12.55;;
75680;SDS011;64294;49.176;16.626;2023-04-29T05:31:03;19.70;;;11.90;;
75680;SDS011;64294;49.176;16.626;2023-04-29T05:33:29;20.52;;;12.63;;
75680;SDS011;64294;49.176;16.626;2023-04-29T05:35:58;19.02;;;12.32;;
75680;SDS011;64294;49.176;16.626;2023-04-29T05:38:24;19.30;;;13.02;;
75680;SDS011;64294;49.176;16.626;2023-04-29T05:40:54;21.38;;;13.82;;
75680;SDS011;64294;49.176;16.626;2023-04-29T05:43:23;20.77;;;13.13;;
75680;SDS011;64294;49.176;16.626;2023-04-29T05:45:48;19.30;;;12.43;;
75680;SDS011;64294;49.176;16.626;2023-04-29T05:48:14;18.08;;;12.70;;
75680;SDS011;64294;49.176;16.626;2023-04-29T05:50:40;19.20;;;13.43;;
75680;SDS011;64294;49.176;16.626;2023-04-29T05:53:06;21.35;;;13.68;;
75680;SDS011;64294;49.176;16.626;2023-04-29T05:55:31;18.58;;;13.13;;
75680;SDS011;64294;49.176;16.626;2023-04-29T05:57:57;22.23;;;13.10;;
75680;SDS011;64294;49.176;16.626;2023-04-29T06:00:22;21.38;;;13.07;;
75680;SDS011;64294;49.176;16.626;2023-04-29T06:02:48;17.80;;;11.98;;
75680;SDS011;64294;49.176;16.626;2023-04-29T06:05:13;18.60;;;11.85;;
75680;SDS011;64294;49.176;16.626;2023-04-29T06:07:39;18.02;;;12.55;;
75680;SDS011;64294;49.176;16.626;2023-04-29T06:10:06;18.02;;;11.07;;
75680;SDS011;64294;49.176;16.626;2023-04-29T06:12:32;16.45;;;11.55;;
75680;SDS011;64294;49.176;16.626;2023-04-29T06:17:33;16.55;;;12.20;;
75680;SDS011;64294;49.176;16.626;2023-04-29T06:19:58;20.08;;;12.13;;
75680;SDS011;64294;49.176;16.626;2023-04-29T06:22:24;20.20;;;12.77;;
75680;SDS011;64294;49.176;16.626;2023-04-29T06:24:49;17.50;;;11.55;;
75680;SDS011;64294;49.176;16.626;2023-04-29T06:27:15;16.40;;;11.68;;
75680;SDS011;64294;49.176;16.626;2023-04-29T06:29:41;19.52;;;11.63;;
75680;SDS011;64294;49.176;16.626;2023-04-29T06:32:06;22.38;;;12.55;;
75680;SDS011;64294;49.176;16.626;2023-04-29T06:34:32;21.30;;;11.63;;
75680;SDS011;64294;49.176;16.626;2023-04-29T06:36:57;19.95;;;12.00;;
75680;SDS011;64294;49.176;16.626;2023-04-29T06:39:26;17.48;;;11.73;;
75680;SDS011;64294;49.176;16.626;2023-04-29T06:41:51;19.20;;;12.75;;
75680;SDS011;64294;49.176;16.626;2023-04-29T06:44:17;22.00;;;12.23;;
75680;SDS011;64294;49.176;16.626;2023-04-29T06:46:42;21.05;;;13.32;;
75680;SDS011;64294;49.176;16.626;2023-04-29T06:49:08;18.55;;;11.85;;
75680;SDS011;64294;49.176;16.626;2023-04-29T06:51:34;21.60;;;15.90;;
75680;SDS011;64294;49.176;16.626;2023-04-29T06:54:01;30.92;;;19.80;;
75680;SDS011;64294;49.176;16.626;2023-04-29T06:56:26;24.83;;;17.65;;
75680;SDS011;64294;49.176;16.626;2023-04-29T06:58:52;20.67;;;13.10;;
75680;SDS011;64294;49.176;16.626;2023-04-29T07:01:17;16.17;;;12.63;;
75680;SDS011;64294;49.176;16.626;2023-04-29T07:03:42;23.10;;;12.00;;
75680;SDS011;64294;49.176;16.626;2023-04-29T07:06:09;16.23;;;11.60;;
75680;SDS011;64294;49.176;16.626;2023-04-29T07:08:34;19.25;;;11.45;;
75680;SDS011;64294;49.176;16.626;2023-04-29T07:10:59;15.82;;;10.98;;
75680;SDS011;64294;49.176;16.626;2023-04-29T07:13:25;18.38;;;10.43;;
75680;SDS011;64294;49.176;16.626;2023-04-29T07:15:50;18.38;;;10.45;;
75680;SDS011;64294;49.176;16.626;2023-04-29T07:18:16;16.90;;;10.85;;
75680;SDS011;64294;49.176;16.626;2023-04-29T07:20:42;16.33;;;10.60;;
75680;SDS011;64294;49.176;16.626;2023-04-29T07:23:08;15.27;;;11.10;;
75680;SDS011;64294;49.176;16.626;2023-04-29T07:25:34;14.25;;;10.38;;
75680;SDS011;64294;49.176;16.626;2023-04-29T07:28:00;15.00;;;10.43;;
75680;SDS011;64294;49.176;16.626;2023-04-29T07:30:28;17.17;;;11.35;;
75680;SDS011;64294;49.176;16.626;2023-04-29T07:32:54;16.40;;;10.68;;
75680;SDS011;64294;49.176;16.626;2023-04-29T07:35:19;16.90;;;11.00;;
75680;SDS011;64294;49.176;16.626;2023-04-29T07:37:45;17.48;;;11.13;;
75680;SDS011;64294;49.176;16.626;2023-04-29T07:40:10;17.20;;;11.27;;
75680;SDS011;64294;49.176;16.626;2023-04-29T07:42:36;19.98;;;11.77;;
75680;SDS011;64294;49.176;16.626;2023-04-29T07:45:02;18.67;;;12.38;;
75680;SDS011;64294;49.176;16.626;2023-04-29T07:47:27;20.65;;;11.88;;
75680;SDS011;64294;49.176;16.626;2023-04-29T07:49:53;17.63;;;12.65;;
75680;SDS011;64294;49.176;16.626;2023-04-29T07:52:21;18.83;;;12.30;;
75680;SDS011;64294;49.176;16.626;2023-04-29T07:54:47;26.75;;;13.00;;
75680;SDS011;64294;49.176;16.626;2023-04-29T07:57:12;29.15;;;12.75;;
75680;SDS011;64294;49.176;16.626;2023-04-29T07:59:37;26.83;;;14.02;;
75680;SDS011;64294;49.176;16.626;2023-04-29T08:02:03;23.60;;;13.32;;
75680;SDS011;64294;49.176;16.626;2023-04-29T08:04:29;22.23;;;13.23;;
75680;SDS011;64294;49.176;16.626;2023-04-29T08:06:54;19.80;;;13.57;;
75680;SDS011;64294;49.176;16.626;2023-04-29T08:09:20;19.13;;;13.60;;
75680;SDS011;64294;49.176;16.626;2023-04-29T08:11:45;17.98;;;13.02;;
75680;SDS011;64294;49.176;16.626;2023-04-29T08:14:11;22.30;;;13.80;;
75680;SDS011;64294;49.176;16.626;2023-04-29T08:16:39;23.80;;;15.02;;
75680;SDS011;64294;49.176;16.626;2023-04-29T08:19:05;21.15;;;15.68;;
75680;SDS011;64294;49.176;16.626;2023-04-29T08:21:30;22.88;;;15.50;;
75680;SDS011;64294;49.176;16.626;2023-04-29T08:23:56;19.27;;;14.77;;
75680;SDS011;64294;49.176;16.626;2023-04-29T08:26:21;19.65;;;14.48;;
75680;SDS011;64294;49.176;16.626;2023-04-29T08:28:48;28.05;;;16.00;;
75680;SDS011;64294;49.176;16.626;2023-04-29T08:31:17;26.52;;;15.75;;
75680;SDS011;64294;49.176;16.626;2023-04-29T08:33:43;33.40;;;16.67;;
75680;SDS011;64294;49.176;16.626;2023-04-29T08:36:09;32.55;;;18.65;;
75680;SDS011;64294;49.176;16.626;2023-04-29T08:38:34;31.35;;;18.65;;
75680;SDS011;64294;49.176;16.626;2023-04-29T08:41:00;31.73;;;18.65;;
75680;SDS011;64294;49.176;16.626;2023-04-29T08:43:25;27.48;;;17.33;;
75680;SDS011;64294;49.176;16.626;2023-04-29T08:45:51;31.80;;;19.08;;
75680;SDS011;64294;49.176;16.626;2023-04-29T08:48:17;28.85;;;19.00;;
75680;SDS011;64294;49.176;16.626;2023-04-29T08:50:43;32.55;;;19.65;;
75680;SDS011;64294;49.176;16.626;2023-04-29T08:53:09;30.45;;;19.35;;
75680;SDS011;64294;49.176;16.626;2023-04-29T08:55:40;36.10;;;20.80;;
75680;SDS011;64294;49.176;16.626;2023-04-29T08:58:11;33.97;;;20.30;;
75680;SDS011;64294;49.176;16.626;2023-04-29T09:00:41;31.45;;;19.40;;
75680;SDS011;64294;49.176;16.626;2023-04-29T09:03:21;30.77;;;19.92;;
75680;SDS011;64294;49.176;16.626;2023-04-29T09:05:57;34.08;;;21.45;;
75680;SDS011;64294;49.176;16.626;2023-04-29T09:08:28;33.13;;;22.20;;
75680;SDS011;64294;49.176;16.626;2023-04-29T09:10:54;42.65;;;23.95;;
75680;SDS011;64294;49.176;16.626;2023-04-29T09:15:56;39.08;;;22.65;;
75680;SDS011;64294;49.176;16.626;2023-04-29T09:18:41;35.70;;;22.23;;
75680;SDS011;64294;49.176;16.626;2023-04-29T09:23:38;44.50;;;24.42;;
75680;SDS011;64294;49.176;16.626;2023-04-29T09:26:03;41.45;;;23.65;;
75680;SDS011;64294;49.176;16.626;2023-04-29T09:28:29;43.10;;;23.60;;
75680;SDS011;64294;49.176;16.626;2023-04-29T09:30:54;46.10;;;24.48;;
75680;SDS011;64294;49.176;16.626;2023-04-29T09:33:20;36.65;;;24.38;;
75680;SDS011;64294;49.176;16.626;2023-04-29T09:35:45;39.53;;;22.83;;
75680;SDS011;64294;49.176;16.626;2023-04-29T09:38:13;33.83;;;21.45;;
75680;SDS011;64294;49.176;16.626;2023-04-29T09:40:40;28.95;;;18.38;;
75680;SDS011;64294;49.176;16.626;2023-04-29T09:43:11;25.70;;;17.60;;
75680;SDS011;64294;49.176;16.626;2023-04-29T09:45:39;23.23;;;15.77;;
75680;SDS011;64294;49.176;16.626;2023-04-29T09:48:11;26.55;;;16.48;;
75680;SDS011;64294;49.176;16.626;2023-04-29T09:50:38;18.20;;;12.50;;
75680;SDS011;64294;49.176;16.626;2023-04-29T09:53:05;18.15;;;12.60;;
75680;SDS011;64294;49.176;16.626;2023-04-29T09:55:33;19.42;;;12.65;;
75680;SDS011;64294;49.176;16.626;2023-04-29T09:57:59;17.65;;;13.40;;
75680;SDS011;64294;49.176;16.626;2023-04-29T10:00:25;19.08;;;13.55;;
75680;SDS011;64294;49.176;16.626;2023-04-29T10:02:59;18.60;;;12.85;;
75680;SDS011;64294;49.176;16.626;2023-04-29T10:05:28;15.43;;;11.30;;
75680;SDS011;64294;49.176;16.626;2023-04-29T10:07:55;16.20;;;11.38;;
75680;SDS011;64294;49.176;16.626;2023-04-29T10:10:25;18.38;;;12.00;;
75680;SDS011;64294;49.176;16.626;2023-04-29T10:12:53;19.10;;;13.57;;
75680;SDS011;64294;49.176;16.626;2023-04-29T10:15:21;19.50;;;14.25;;
75680;SDS011;64294;49.176;16.626;2023-04-29T10:18:02;21.52;;;13.93;;
75680;SDS011;64294;49.176;16.626;2023-04-29T10:20:46;21.83;;;14.80;;
75680;SDS011;64294;49.176;16.626;2023-04-29T10:23:13;23.02;;;15.50;;
75680;SDS011;64294;49.176;16.626;2023-04-29T10:25:41;25.58;;;14.15;;
75680;SDS011;64294;49.176;16.626;2023-04-29T10:28:13;21.30;;;13.38;;
75680;SDS011;64294;49.176;16.626;2023-04-29T10:30:43;19.65;;;12.55;;
75680;SDS011;64294;49.176;16.626;2023-04-29T10:33:12;17.52;;;11.95;;
75680;SDS011;64294;49.176;16.626;2023-04-29T10:35:41;17.48;;;11.07;;
75680;SDS011;64294;49.176;16.626;2023-04-29T10:38:10;22.40;;;10.55;;
75680;SDS011;64294;49.176;16.626;2023-04-29T10:40:50;16.23;;;11.25;;
75680;SDS011;64294;49.176;16.626;2023-04-29T10:43:24;20.83;;;11.50;;
75680;SDS011;64294;49.176;16.626;2023-04-29T10:46:10;16.95;;;10.60;;
75680;SDS011;64294;49.176;16.626;2023-04-29T10:48:54;16.15;;;10.38;;
75680;SDS011;64294;49.176;16.626;2023-04-29T10:51:32;13.38;;;9.15;;
75680;SDS011;64294;49.176;16.626;2023-04-29T10:56:46;14.05;;;9.30;;
75680;SDS011;64294;49.176;16.626;2023-04-29T11:00:02;12.13;;;9.50;;
75680;SDS011;64294;49.176;16.626;2023-04-29T11:02:01;12.88;;;8.80;;
75680;SDS011;64294;49.176;16.626;2023-04-29T11:04:26;17.40;;;9.95;;
75680;SDS011;64294;49.176;16.626;2023-04-29T11:06:53;15.10;;;9.82;;
75680;SDS011;64294;49.176;16.626;2023-04-29T11:11:55;12.38;;;9.27;;
75680;SDS011;64294;49.176;16.626;2023-04-29T11:14:34;13.20;;;9.63;;
75680;SDS011;64294;49.176;16.626;2023-04-29T11:17:09;12.63;;;9.13;;
75680;SDS011;64294;49.176;16.626;2023-04-29T11:19:43;14.23;;;9.80;;
75680;SDS011;64294;49.176;16.626;2023-04-29T11:27:36;13.40;;;9.55;;
75680;SDS011;64294;49.176;16.626;2023-04-29T11:30:04;11.70;;;9.20;;
75680;SDS011;64294;49.176;16.626;2023-04-29T11:32:35;15.23;;;10.15;;
75680;SDS011;64294;49.176;16.626;2023-04-29T11:37:33;15.60;;;11.50;;
75680;SDS011;64294;49.176;16.626;2023-04-29T11:39:59;15.75;;;10.85;;
75680;SDS011;64294;49.176;16.626;2023-04-29T11:42:28;21.00;;;11.77;;
75680;SDS011;64294;49.176;16.626;2023-04-29T11:44:53;15.98;;;10.93;;
75680;SDS011;64294;49.176;16.626;2023-04-29T11:47:27;19.05;;;12.05;;
75680;SDS011;64294;49.176;16.626;2023-04-29T11:50:00;17.65;;;11.88;;
75680;SDS011;64294;49.176;16.626;2023-04-29T11:52:36;19.85;;;12.32;;
75680;SDS011;64294;49.176;16.626;2023-04-29T11:55:04;23.25;;;12.00;;
75680;SDS011;64294;49.176;16.626;2023-04-29T11:57:30;26.65;;;13.10;;
75680;SDS011;64294;49.176;16.626;2023-04-29T11:59:57;20.17;;;12.80;;
75680;SDS011;64294;49.176;16.626;2023-04-29T12:02:29;21.90;;;12.93;;
75680;SDS011;64294;49.176;16.626;2023-04-29T12:05:07;20.15;;;13.27;;
75680;SDS011;64294;49.176;16.626;2023-04-29T12:07:33;21.35;;;15.45;;
75680;SDS011;64294;49.176;16.626;2023-04-29T12:09:59;20.23;;;14.27;;
75680;SDS011;64294;49.176;16.626;2023-04-29T12:12:25;24.10;;;14.68;;
75680;SDS011;64294;49.176;16.626;2023-04-29T12:14:52;29.85;;;14.45;;
75680;SDS011;64294;49.176;16.626;2023-04-29T12:17:18;23.70;;;15.52;;
75680;SDS011;64294;49.176;16.626;2023-04-29T12:19:45;31.27;;;16.58;;
75680;SDS011;64294;49.176;16.626;2023-04-29T12:22:12;25.50;;;16.25;;
75680;SDS011;64294;49.176;16.626;2023-04-29T12:24:38;28.50;;;16.92;;
75680;SDS011;64294;49.176;16.626;2023-04-29T12:27:07;33.17;;;16.48;;
75680;SDS011;64294;49.176;16.626;2023-04-29T12:29:35;27.55;;;16.27;;
75680;SDS011;64294;49.176;16.626;2023-04-29T12:32:04;26.05;;;17.58;;
75680;SDS011;64294;49.176;16.626;2023-04-29T12:34:30;24.38;;;16.67;;
75680;SDS011;64294;49.176;16.626;2023-04-29T12:37:00;29.63;;;17.92;;
75680;SDS011;64294;49.176;16.626;2023-04-29T12:39:26;26.27;;;15.95;;
75680;SDS011;64294;49.176;16.626;2023-04-29T12:41:58;27.02;;;17.95;;
75680;SDS011;64294;49.176;16.626;2023-04-29T12:44:25;29.88;;;18.88;;
75680;SDS011;64294;49.176;16.626;2023-04-29T12:46:51;26.27;;;17.42;;
75680;SDS011;64294;49.176;16.626;2023-04-29T12:49:17;28.42;;;18.10;;
75680;SDS011;64294;49.176;16.626;2023-04-29T12:51:45;31.90;;;19.83;;
75680;SDS011;64294;49.176;16.626;2023-04-29T12:54:11;40.58;;;19.63;;
75680;SDS011;64294;49.176;16.626;2023-04-29T12:56:37;37.88;;;19.45;;
75680;SDS011;64294;49.176;16.626;2023-04-29T12:59:08;32.25;;;19.17;;
75680;SDS011;64294;49.176;16.626;2023-04-29T13:01:35;30.35;;;20.23;;
75680;SDS011;64294;49.176;16.626;2023-04-29T13:04:01;32.38;;;19.63;;
75680;SDS011;64294;49.176;16.626;2023-04-29T13:06:28;28.13;;;19.08;;
75680;SDS011;64294;49.176;16.626;2023-04-29T13:08:53;28.60;;;20.23;;
75680;SDS011;64294;49.176;16.626;2023-04-29T13:11:19;28.60;;;18.30;;
75680;SDS011;64294;49.176;16.626;2023-04-29T13:13:45;25.63;;;17.17;;
75680;SDS011;64294;49.176;16.626;2023-04-29T13:16:10;29.08;;;17.63;;
75680;SDS011;64294;49.176;16.626;2023-04-29T13:18:36;25.80;;;17.20;;
75680;SDS011;64294;49.176;16.626;2023-04-29T13:21:07;30.95;;;18.48;;
75680;SDS011;64294;49.176;16.626;2023-04-29T13:23:32;29.75;;;17.20;;
75680;SDS011;64294;49.176;16.626;2023-04-29T13:25:57;24.92;;;16.35;;
75680;SDS011;64294;49.176;16.626;2023-04-29T13:28:23;21.52;;;14.98;;
75680;SDS011;64294;49.176;16.626;2023-04-29T13:30:48;24.75;;;15.57;;
75680;SDS011;64294;49.176;16.626;2023-04-29T13:33:14;21.50;;;15.77;;
75680;SDS011;64294;49.176;16.626;2023-04-29T13:35:40;23.65;;;15.98;;
75680;SDS011;64294;49.176;16.626;2023-04-29T13:38:09;23.83;;;16.20;;
75680;SDS011;64294;49.176;16.626;2023-04-29T13:40:34;23.70;;;16.38;;
75680;SDS011;64294;49.176;16.626;2023-04-29T13:42:59;23.20;;;15.30;;
75680;SDS011;64294;49.176;16.626;2023-04-29T13:45:25;22.88;;;16.23;;
75680;SDS011;64294;49.176;16.626;2023-04-29T13:47:50;25.52;;;16.13;;
75680;SDS011;64294;49.176;16.626;2023-04-29T13:50:15;22.30;;;15.20;;
75680;SDS011;64294;49.176;16.626;2023-04-29T13:52:41;21.73;;;15.18;;
75680;SDS011;64294;49.176;16.626;2023-04-29T13:55:07;20.70;;;14.55;;
75680;SDS011;64294;49.176;16.626;2023-04-29T13:57:32;21.27;;;15.20;;
75680;SDS011;64294;49.176;16.626;2023-04-29T13:59:58;21.67;;;14.40;;
75680;SDS011;64294;49.176;16.626;2023-04-29T14:02:23;20.70;;;15.07;;
75680;SDS011;64294;49.176;16.626;2023-04-29T14:04:49;25.30;;;15.30;;
75680;SDS011;64294;49.176;16.626;2023-04-29T14:07:14;27.95;;;15.05;;
75680;SDS011;64294;49.176;16.626;2023-04-29T14:09:40;24.88;;;14.63;;
75680;SDS011;64294;49.176;16.626;2023-04-29T14:12:05;20.83;;;14.70;;
75680;SDS011;64294;49.176;16.626;2023-04-29T14:14:31;28.05;;;15.20;;
75680;SDS011;64294;49.176;16.626;2023-04-29T14:16:56;22.60;;;14.10;;
75680;SDS011;64294;49.176;16.626;2023-04-29T14:19:21;40.95;;;15.18;;
75680;SDS011;64294;49.176;16.626;2023-04-29T14:21:47;27.33;;;14.50;;
75680;SDS011;64294;49.176;16.626;2023-04-29T14:24:12;23.02;;;13.80;;
75680;SDS011;64294;49.176;16.626;2023-04-29T14:26:38;24.15;;;14.25;;
75680;SDS011;64294;49.176;16.626;2023-04-29T14:29:03;25.38;;;14.50;;
75680;SDS011;64294;49.176;16.626;2023-04-29T14:31:29;22.85;;;14.15;;
75680;SDS011;64294;49.176;16.626;2023-04-29T14:33:58;23.58;;;14.43;;
75680;SDS011;64294;49.176;16.626;2023-04-29T14:36:23;20.20;;;13.95;;
75680;SDS011;64294;49.176;16.626;2023-04-29T14:38:49;20.67;;;14.63;;
75680;SDS011;64294;49.176;16.626;2023-04-29T14:41:15;19.15;;;13.88;;
75680;SDS011;64294;49.176;16.626;2023-04-29T14:43:40;21.75;;;13.73;;
75680;SDS011;64294;49.176;16.626;2023-04-29T14:46:06;20.00;;;14.05;;
75680;SDS011;64294;49.176;16.626;2023-04-29T14:48:32;20.63;;;13.80;;